Time;durP1;ratioP1;P1;durP2;ratioP2;P2;SDS_P1;SDS_P2;PMS_P1;PMS_P2;Temp;Humidity;BMP_temperature;BMP_pressure;BME280_temperature;BME280_humidity;BME280_pressure;Samples;Min_cycle;Max_cycle;Signal;HPM_P1;HPM_P2
2023/01/04 00:01:26;;;;;;;3.08;1.30;;;9.50;70.90;;;;;;2527539;54;21781;-84
2023/01/04 00:03:52;;;;;;;1.95;0.93;;;9.40;70.80;;;;;;2528179;54;20949;-83
2023/01/04 00:06:20;;;;;;;2.37;1.00;;;9.40;70.80;;;;;;2527254;54;21384;-83
2023/01/04 00:08:47;;;;;;;2.17;1.00;;;9.40;70.70;;;;;;2527835;54;20946;-83
2023/01/04 00:11:16;;;;;;;2.25;1.17;;;9.40;70.60;;;;;;2527192;54;21616;-83
2023/01/04 00:13:42;;;;;;;3.10;1.23;;;9.30;70.50;;;;;;2527312;54;20917;-83
2023/01/04 00:16:14;;;;;;;4.43;1.50;;;9.30;70.40;;;;;;2293414;55;20949;-82
2023/01/04 00:18:41;;;;;;;2.90;1.25;;;9.30;70.40;;;;;;2293837;55;20950;-82
2023/01/04 00:21:09;;;;;;;3.22;1.58;;;9.20;70.40;;;;;;2527238;54;20906;-83
2023/01/04 00:23:36;;;;;;;3.15;1.40;;;9.20;70.40;;;;;;2527488;54;20997;-83
2023/01/04 00:26:07;;;;;;;3.22;1.27;;;9.10;70.30;;;;;;2527980;54;20925;-83
2023/01/04 00:28:34;;;;;;;3.10;1.25;;;9.10;70.30;;;;;;2293396;55;21356;-82
2023/01/04 00:31:07;;;;;;;3.20;1.50;;;9.10;70.30;;;;;;2527377;54;20991;-83
2023/01/04 00:33:34;;;;;;;4.28;1.90;;;9.00;70.10;;;;;;2527904;54;21011;-84
2023/01/04 00:36:03;;;;;;;3.65;1.80;;;9.10;70.40;;;;;;2528110;54;21123;-83
2023/01/04 00:38:30;;;;;;;4.90;2.12;;;9.00;70.20;;;;;;2293477;55;20934;-83
2023/01/04 00:40:57;;;;;;;3.90;1.70;;;9.00;70.20;;;;;;2294339;55;20942;-83
2023/01/04 00:43:24;;;;;;;3.35;1.50;;;8.90;70.20;;;;;;2527225;54;21015;-83
2023/01/04 00:45:50;;;;;;;3.00;1.40;;;8.90;70.30;;;;;;2528595;54;21550;-83
2023/01/04 00:48:16;;;;;;;2.92;1.40;;;8.90;70.30;;;;;;2527947;54;20977;-84
2023/01/04 00:50:44;;;;;;;3.37;1.67;;;8.90;70.30;;;;;;2527874;54;21434;-83
2023/01/04 00:53:10;;;;;;;3.87;1.50;;;8.90;70.20;;;;;;2292991;55;20985;-83
2023/01/04 00:55:36;;;;;;;3.65;1.83;;;8.80;70.10;;;;;;2528563;54;20941;-84
2023/01/04 00:58:03;;;;;;;4.00;2.30;;;8.80;70.00;;;;;;2294964;55;21818;-83
2023/01/04 01:00:29;;;;;;;6.70;2.75;;;8.80;69.90;;;;;;2527679;54;20985;-83
2023/01/04 01:02:55;;;;;;;4.93;2.90;;;8.70;70.30;;;;;;2528551;54;20910;-84
2023/01/04 01:05:22;;;;;;;4.95;2.97;;;8.70;69.60;;;;;;2528413;54;21006;-83
2023/01/04 01:07:48;;;;;;;5.28;2.97;;;8.70;69.60;;;;;;2528799;54;20942;-83
2023/01/04 01:10:14;;;;;;;6.15;3.40;;;8.60;69.40;;;;;;2294101;55;20982;-83
2023/01/04 01:12:41;;;;;;;5.62;3.35;;;8.60;69.40;;;;;;2527130;54;20941;-82
2023/01/04 01:15:08;;;;;;;6.05;3.67;;;8.50;69.30;;;;;;2293751;55;21525;-83
2023/01/04 01:17:35;;;;;;;5.90;3.37;;;8.50;69.20;;;;;;2527347;54;20994;-83
2023/01/04 01:20:03;;;;;;;6.28;3.55;;;8.40;69.10;;;;;;2527725;54;20954;-83
2023/01/04 01:22:30;;;;;;;7.30;3.45;;;8.30;69.10;;;;;;2526948;54;21233;-83
2023/01/04 01:24:57;;;;;;;6.75;4.12;;;8.30;69.20;;;;;;2293559;55;20914;-83
2023/01/04 01:27:23;;;;;;;6.53;4.05;;;8.20;69.30;;;;;;2527007;54;21020;-83
2023/01/04 01:29:49;;;;;;;17.37;5.55;;;8.20;69.50;;;;;;2527738;54;20904;-82
2023/01/04 01:32:16;;;;;;;8.38;5.50;;;8.10;69.50;;;;;;2526941;54;20969;-83
2023/01/04 01:34:42;;;;;;;8.25;4.53;;;8.10;69.60;;;;;;2291043;55;21906;-82
2023/01/04 01:37:08;;;;;;;7.50;4.90;;;8.10;69.80;;;;;;2291779;55;20929;-83
2023/01/04 01:39:34;;;;;;;7.18;4.45;;;8.10;69.90;;;;;;2525309;54;20992;-83
2023/01/04 01:42:01;;;;;;;8.45;4.37;;;8.00;69.80;;;;;;2525082;54;20934;-82
2023/01/04 01:48:11;;;;;;;6.78;4.07;;;8.00;69.90;;;;;;2291392;55;20956;-83
2023/01/04 01:50:45;;;;;;;5.75;3.15;;;8.00;69.20;;;;;;2522960;54;21836;-83
2023/01/04 01:53:12;;;;;;;5.18;2.67;;;8.00;69.80;;;;;;2523281;54;21081;-82
2023/01/04 01:55:38;;;;;;;5.20;2.85;;;7.90;69.90;;;;;;2523763;54;20988;-84
2023/01/04 01:58:04;;;;;;;5.37;3.10;;;7.90;70.00;;;;;;2524034;54;20989;-83
2023/01/04 02:00:31;;;;;;;4.60;2.70;;;7.90;70.00;;;;;;2290017;55;22069;-83
2023/01/04 02:03:14;;;;;;;6.12;2.80;;;7.80;70.00;;;;;;2290427;55;20933;-83
2023/01/04 02:05:40;;;;;;;4.53;2.30;;;7.80;70.10;;;;;;2523598;54;21016;-84
2023/01/04 02:08:07;;;;;;;4.20;2.30;;;7.80;70.10;;;;;;2523553;54;21584;-83
2023/01/04 02:10:34;;;;;;;5.82;3.20;;;7.80;69.90;;;;;;2290460;55;20989;-84
2023/01/04 02:13:04;;;;;;;4.97;2.90;;;7.80;69.90;;;;;;2289404;55;20929;-83
2023/01/04 02:15:47;;;;;;;6.07;3.17;;;7.80;69.80;;;;;;2290830;55;21084;-83
2023/01/04 02:18:17;;;;;;;6.65;3.17;;;7.70;70.40;;;;;;2292742;55;21893;-83
2023/01/04 02:20:51;;;;;;;5.40;2.90;;;7.70;69.70;;;;;;2526378;54;21029;-83
2023/01/04 02:30:24;;;;;;;4.60;2.85;;;7.70;69.70;;;;;;2292326;55;20933;-84
2023/01/04 02:33:32;;;;;;;3.67;1.77;;;7.60;68.60;;;;;;2552568;53;20939;-84
2023/01/04 02:36:25;;;;;;;4.95;1.77;;;7.60;69.30;;;;;;2559477;53;20963;-83
2023/01/04 02:40:28;;;;;;;6.00;2.70;;;7.50;70.00;;;;;;2559782;53;21026;-84
2023/01/04 02:45:52;;;;;;;4.07;1.98;;;7.50;71.90;;;;;;2559381;53;20923;-84
2023/01/04 02:51:02;;;;;;;4.40;2.10;;;7.60;73.00;;;;;;2319827;54;20950;-84
2023/01/04 02:53:36;;;;;;;5.82;2.40;;;7.70;73.40;;;;;;2558957;53;20955;-84
2023/01/04 02:56:36;;;;;;;4.12;2.17;;;7.80;73.80;;;;;;2559921;53;20912;-84
2023/01/04 03:09:18;;;;;;;3.78;2.00;;;8.30;74.40;;;;;;2559116;53;20932;-83
2023/01/04 03:14:47;;;;;;;4.30;2.15;;;8.50;74.60;;;;;;2298357;54;20959;-85
2023/01/04 03:17:14;;;;;;;3.65;1.80;;;8.60;74.70;;;;;;2560728;53;21814;-84
2023/01/04 03:19:53;;;;;;;4.32;2.15;;;8.70;74.70;;;;;;2560452;53;20967;-83
2023/01/04 03:43:08;;;;;;;4.15;1.60;;;9.30;74.50;;;;;;2528055;54;21011;-83
2023/01/04 03:48:41;;;;;;;2.65;1.20;;;9.70;74.30;;;;;;2524671;53;21006;-84
2023/01/04 03:51:22;;;;;;;2.72;1.15;;;9.80;74.20;;;;;;2290922;53;20945;-84
2023/01/04 03:54:10;;;;;;;3.15;1.50;;;9.80;74.40;;;;;;2291295;53;20950;-84
2023/01/04 03:56:40;;;;;;;2.80;1.10;;;9.90;74.30;;;;;;2291318;54;20937;-83
2023/01/04 03:59:08;;;;;;;2.95;1.20;;;9.90;74.40;;;;;;2524801;53;22002;-83
2023/01/04 04:01:34;;;;;;;2.17;1.10;;;10.00;73.30;;;;;;2524336;54;21532;-83
2023/01/04 04:09:30;;;;;;;3.47;1.17;;;10.20;73.30;;;;;;2524074;54;21548;-83
2023/01/04 04:11:57;;;;;;;3.53;1.00;;;10.30;73.20;;;;;;2291085;55;20921;-83
2023/01/04 04:14:23;;;;;;;2.20;0.90;;;10.30;73.00;;;;;;2526393;54;20945;-83
2023/01/04 04:16:50;;;;;;;2.55;1.00;;;10.40;73.10;;;;;;2528240;54;21001;-86
2023/01/04 04:19:18;;;;;;;2.22;0.90;;;10.50;73.20;;;;;;2527455;54;20909;-83
2023/01/04 04:21:44;;;;;;;2.17;0.93;;;10.50;72.90;;;;;;2527170;54;20989;-83
2023/01/04 04:24:23;;;;;;;2.37;0.90;;;10.60;72.90;;;;;;2293188;55;20950;-84
2023/01/04 04:26:50;;;;;;;2.80;0.75;;;10.50;72.30;;;;;;2527911;54;20998;-84
2023/01/04 04:29:16;;;;;;;3.58;1.00;;;10.70;72.80;;;;;;2527628;54;21914;-83
2023/01/04 04:31:43;;;;;;;2.17;0.70;;;10.70;72.60;;;;;;2293339;55;21060;-84
2023/01/04 04:34:09;;;;;;;3.50;0.90;;;10.80;72.60;;;;;;2293764;55;22192;-84
2023/01/04 04:36:36;;;;;;;3.72;1.45;;;10.80;72.40;;;;;;2293890;55;20936;-82
2023/01/04 04:39:02;;;;;;;2.85;0.85;;;10.90;72.50;;;;;;2527717;54;21052;-84
2023/01/04 04:41:37;;;;;;;3.90;1.00;;;10.90;72.40;;;;;;2527200;54;20965;-84
2023/01/04 04:44:06;;;;;;;2.62;0.75;;;10.90;72.30;;;;;;2528048;54;20933;-84
2023/01/04 04:46:33;;;;;;;1.85;0.70;;;11.00;72.30;;;;;;2527624;54;21009;-83
2023/01/04 04:49:00;;;;;;;2.17;0.93;;;11.00;72.20;;;;;;2527971;54;20965;-84
2023/01/04 04:51:26;;;;;;;1.80;0.70;;;11.10;72.20;;;;;;2527147;54;20996;-84
2023/01/04 04:53:52;;;;;;;2.47;0.80;;;11.10;72.10;;;;;;2315234;55;20957;-84
2023/01/04 04:56:19;;;;;;;1.27;0.50;;;11.10;72.00;;;;;;2560261;54;21498;-83
2023/01/04 04:58:45;;;;;;;2.40;0.77;;;11.10;72.00;;;;;;2560493;54;21940;-84
2023/01/04 05:01:11;;;;;;;2.37;0.75;;;11.20;72.00;;;;;;2320043;55;20942;-84
2023/01/04 05:03:37;;;;;;;2.67;1.15;;;11.20;71.90;;;;;;2560204;54;20997;-83
2023/01/04 05:06:04;;;;;;;2.90;0.85;;;11.30;72.00;;;;;;2560852;54;20922;-84
2023/01/04 05:08:30;;;;;;;1.65;0.70;;;11.30;71.80;;;;;;2559402;54;20966;-83
2023/01/04 05:10:56;;;;;;;3.00;1.10;;;11.30;71.70;;;;;;2560707;54;21837;-84
2023/01/04 05:13:23;;;;;;;1.75;0.80;;;11.40;71.70;;;;;;2559947;54;21009;-87
2023/01/04 05:15:51;;;;;;;2.95;0.77;;;11.40;71.60;;;;;;2560650;54;20931;-84
2023/01/04 05:18:19;;;;;;;2.28;0.70;;;11.40;71.40;;;;;;2560540;54;21887;-84
2023/01/04 05:20:45;;;;;;;2.65;0.70;;;11.40;71.30;;;;;;2320460;55;20946;-84
2023/01/04 05:23:13;;;;;;;1.35;0.80;;;11.50;71.40;;;;;;2320191;55;20918;-84
2023/01/04 05:25:39;;;;;;;2.00;0.70;;;11.50;71.30;;;;;;2320394;55;20934;-83
2023/01/04 05:28:06;;;;;;;1.83;0.55;;;11.50;71.30;;;;;;2321020;55;20914;-85
2023/01/04 05:30:52;;;;;;;1.65;0.60;;;11.50;71.20;;;;;;2559725;54;20982;-84
2023/01/04 05:33:29;;;;;;;2.60;0.60;;;11.60;71.40;;;;;;2559972;54;21723;-85
2023/01/04 05:35:56;;;;;;;1.37;0.60;;;11.60;70.70;;;;;;2561062;54;20982;-84
2023/01/04 05:38:23;;;;;;;1.27;0.50;;;11.60;71.00;;;;;;2560335;54;20906;-83
2023/01/04 05:40:50;;;;;;;2.53;0.77;;;11.60;71.00;;;;;;2320432;55;21779;-83
2023/01/04 05:43:16;;;;;;;1.55;0.55;;;11.60;70.90;;;;;;2559938;54;20926;-83
2023/01/04 05:45:43;;;;;;;1.83;0.70;;;11.70;70.90;;;;;;2560614;54;20934;-84
2023/01/04 05:48:09;;;;;;;2.20;0.77;;;11.70;70.80;;;;;;2320546;55;20982;-84
2023/01/04 05:50:36;;;;;;;1.45;0.60;;;11.70;70.80;;;;;;2560091;54;20942;-84
2023/01/04 05:53:06;;;;;;;1.90;0.60;;;11.70;70.80;;;;;;2560245;54;20923;-84
2023/01/04 05:55:33;;;;;;;1.12;0.40;;;11.80;70.70;;;;;;2320543;55;21462;-83
2023/01/04 05:57:59;;;;;;;1.40;0.60;;;11.80;70.80;;;;;;2560826;54;20978;-84
2023/01/04 06:00:25;;;;;;;1.27;0.50;;;11.80;70.70;;;;;;2320416;55;20926;-83
2023/01/04 06:02:55;;;;;;;2.78;0.70;;;11.80;70.60;;;;;;2560531;54;20970;-83
2023/01/04 06:05:22;;;;;;;1.10;0.50;;;11.80;70.60;;;;;;2559760;54;21460;-84
2023/01/04 06:07:50;;;;;;;1.67;0.50;;;11.80;70.40;;;;;;2320434;55;21829;-83
2023/01/04 06:10:16;;;;;;;1.80;0.68;;;11.80;70.40;;;;;;2560071;54;20997;-84
2023/01/04 06:12:42;;;;;;;1.65;0.68;;;11.90;70.40;;;;;;2560151;54;21837;-83
2023/01/04 06:15:10;;;;;;;2.00;0.50;;;11.90;70.30;;;;;;2560591;54;20978;-84
2023/01/04 06:17:36;;;;;;;1.17;0.50;;;11.90;71.00;;;;;;2560619;54;21001;-83
2023/01/04 06:20:03;;;;;;;1.45;0.55;;;11.90;70.20;;;;;;2533119;54;21098;-84
2023/01/04 06:22:29;;;;;;;1.67;0.70;;;12.00;70.30;;;;;;2319139;55;20961;-84
2023/01/04 06:24:55;;;;;;;4.15;1.17;;;12.00;70.20;;;;;;2560561;54;21010;-84
2023/01/04 06:27:22;;;;;;;2.25;0.70;;;12.00;70.20;;;;;;2320259;55;20934;-84
2023/01/04 06:29:48;;;;;;;1.30;0.50;;;12.00;70.10;;;;;;2319394;55;20970;-83
2023/01/04 06:32:14;;;;;;;1.37;0.50;;;12.00;70.00;;;;;;2559919;54;21078;-83
2023/01/04 06:34:41;;;;;;;1.75;0.60;;;12.10;70.10;;;;;;2559700;54;20994;-84
2023/01/04 06:37:08;;;;;;;1.17;0.47;;;12.10;70.10;;;;;;2320304;55;20934;-84
2023/01/04 06:39:36;;;;;;;1.77;0.60;;;12.10;70.10;;;;;;2319795;55;20990;-83
2023/01/04 06:42:02;;;;;;;1.65;0.70;;;12.10;70.10;;;;;;2560240;54;21344;-83
2023/01/04 06:44:31;;;;;;;2.72;0.40;;;12.10;70.00;;;;;;2559964;54;20942;-84
2023/01/04 06:46:58;;;;;;;1.12;0.50;;;12.10;69.90;;;;;;2560727;54;20911;-83
2023/01/04 06:49:24;;;;;;;1.80;0.60;;;12.20;70.00;;;;;;2319741;55;20970;-84
2023/01/04 06:51:50;;;;;;;2.15;0.60;;;12.20;69.90;;;;;;2559963;54;20909;-84
2023/01/04 06:54:16;;;;;;;1.83;0.60;;;12.20;69.80;;;;;;2560457;54;20931;-84
2023/01/04 06:56:43;;;;;;;2.45;0.52;;;12.20;69.80;;;;;;2560095;54;21780;-83
2023/01/04 06:59:10;;;;;;;2.37;0.50;;;12.20;69.70;;;;;;2560134;54;21032;-84
2023/01/04 07:01:37;;;;;;;1.60;0.57;;;12.30;69.70;;;;;;2560170;54;20911;-83
2023/01/04 07:04:03;;;;;;;1.95;0.40;;;12.30;69.60;;;;;;2560126;54;21010;-83
2023/01/04 07:06:29;;;;;;;2.15;0.50;;;12.30;69.60;;;;;;2320279;55;21290;-83
2023/01/04 07:08:57;;;;;;;1.35;0.55;;;12.30;69.50;;;;;;2560446;54;20918;-83
2023/01/04 07:11:23;;;;;;;1.70;0.50;;;12.30;69.50;;;;;;2559595;54;20926;-83
2023/01/04 07:13:51;;;;;;;2.65;0.45;;;12.40;69.50;;;;;;2560309;54;21065;-83
2023/01/04 07:16:17;;;;;;;3.08;0.60;;;12.30;69.40;;;;;;2560054;54;20978;-83
2023/01/04 07:18:44;;;;;;;1.42;0.50;;;12.30;69.10;;;;;;2320213;55;21923;-84
2023/01/04 07:21:10;;;;;;;1.67;0.60;;;12.40;69.30;;;;;;2301352;55;20941;-84
2023/01/04 07:23:36;;;;;;;1.35;0.60;;;12.40;69.20;;;;;;2560136;54;21807;-84
2023/01/04 07:26:03;;;;;;;0.77;0.37;;;12.40;69.20;;;;;;2560566;54;20962;-85
2023/01/04 07:31:14;;;;;;;1.20;0.40;;;12.50;69.40;;;;;;2560037;54;20966;-84
2023/01/04 07:33:40;;;;;;;1.33;0.37;;;12.50;69.20;;;;;;2559832;54;20950;-84
2023/01/04 07:36:07;;;;;;;2.47;0.50;;;12.50;69.10;;;;;;2560344;54;20939;-83
2023/01/04 07:38:34;;;;;;;1.45;0.40;;;12.50;69.10;;;;;;2560466;54;20987;-84
2023/01/04 07:41:00;;;;;;;0.93;0.40;;;12.50;69.10;;;;;;2560382;54;20935;-84
2023/01/04 07:43:27;;;;;;;1.70;0.43;;;12.50;69.00;;;;;;2559986;54;20914;-84
2023/01/04 07:45:54;;;;;;;0.90;0.30;;;12.50;68.80;;;;;;2560219;54;20955;-84
2023/01/04 07:48:20;;;;;;;2.85;0.70;;;12.50;68.90;;;;;;2320251;55;21547;-84
2023/01/04 07:50:46;;;;;;;1.75;0.37;;;12.60;68.80;;;;;;2320114;55;20950;-82
2023/01/04 07:53:12;;;;;;;1.20;0.40;;;12.60;68.80;;;;;;2559968;54;20982;-83
2023/01/04 07:55:39;;;;;;;1.10;0.52;;;12.60;68.80;;;;;;2560490;54;20918;-84
2023/01/04 07:58:05;;;;;;;0.77;0.40;;;12.60;68.70;;;;;;2320807;55;21030;-83
2023/01/04 08:00:31;;;;;;;1.65;0.37;;;12.60;68.70;;;;;;2320707;55;20962;-83
2023/01/04 08:02:58;;;;;;;1.00;0.40;;;12.60;68.70;;;;;;2560242;54;20939;-84
2023/01/04 08:05:24;;;;;;;1.37;0.47;;;12.60;68.70;;;;;;2560618;54;20967;-83
2023/01/04 08:07:51;;;;;;;2.25;0.50;;;12.60;68.70;;;;;;2320641;55;20946;-84
2023/01/04 08:10:17;;;;;;;1.83;0.50;;;12.60;68.70;;;;;;2320080;55;20985;-84
2023/01/04 08:12:44;;;;;;;1.25;0.47;;;12.60;68.70;;;;;;2560194;54;20926;-83
2023/01/04 08:15:10;;;;;;;2.67;0.70;;;12.60;68.70;;;;;;2560672;54;20999;-83
2023/01/04 08:17:36;;;;;;;1.65;0.40;;;12.60;68.60;;;;;;2319601;55;20961;-84
2023/01/04 08:20:03;;;;;;;1.00;0.50;;;12.60;68.40;;;;;;2561049;54;20926;-84
2023/01/04 08:22:30;;;;;;;0.98;0.47;;;12.60;68.50;;;;;;2560915;54;20942;-83
2023/01/04 08:24:57;;;;;;;3.45;0.52;;;12.60;68.40;;;;;;2560467;54;21853;-83
2023/01/04 08:27:24;;;;;;;1.60;0.60;;;12.70;68.50;;;;;;2560295;54;21013;-84
2023/01/04 08:29:51;;;;;;;1.83;0.52;;;12.70;68.50;;;;;;2560861;54;21442;-84
2023/01/04 08:32:17;;;;;;;2.42;0.50;;;12.70;68.30;;;;;;2321024;55;20958;-86
2023/01/04 08:34:43;;;;;;;1.50;0.52;;;12.70;68.40;;;;;;2561018;54;20985;-84
2023/01/04 08:37:10;;;;;;;2.15;0.50;;;12.70;68.20;;;;;;2320328;55;20934;-83
2023/01/04 08:39:36;;;;;;;1.60;0.47;;;12.70;68.20;;;;;;2560497;54;21031;-83
2023/01/04 08:42:03;;;;;;;1.20;0.40;;;12.70;68.20;;;;;;2312997;55;20941;-85
2023/01/04 08:44:37;;;;;;;1.33;0.40;;;12.80;68.40;;;;;;2547997;54;20942;-84
2023/01/04 08:47:06;;;;;;;2.72;0.70;;;12.80;68.40;;;;;;2320689;55;20970;-86
2023/01/04 08:49:34;;;;;;;1.73;0.47;;;12.80;68.40;;;;;;2321138;55;22470;-85
2023/01/04 08:52:00;;;;;;;1.55;0.50;;;12.80;68.30;;;;;;2321538;55;20938;-86
2023/01/04 08:54:26;;;;;;;1.90;0.60;;;12.80;68.10;;;;;;2561638;54;21026;-83
2023/01/04 08:56:53;;;;;;;1.05;0.40;;;12.90;68.20;;;;;;2318075;55;21009;-85
2023/01/04 08:59:19;;;;;;;1.48;0.50;;;12.90;68.20;;;;;;2319399;54;20939;-84
2023/01/04 09:01:45;;;;;;;1.73;0.60;;;12.90;68.20;;;;;;2560835;53;20998;-84
2023/01/04 09:04:12;;;;;;;1.10;0.40;;;12.90;67.90;;;;;;2321922;54;20928;-85
2023/01/04 09:06:38;;;;;;;1.50;0.60;;;12.90;67.90;;;;;;2561978;53;20999;-85
2023/01/04 09:09:05;;;;;;;2.72;1.02;;;12.90;67.80;;;;;;2322650;54;20912;-86
2023/01/04 09:11:32;;;;;;;1.42;0.50;;;12.90;67.80;;;;;;2561474;53;20910;-84
2023/01/04 09:13:59;;;;;;;1.15;0.40;;;13.00;67.80;;;;;;2560894;53;21018;-83
2023/01/04 09:16:30;;;;;;;3.42;0.50;;;13.00;67.70;;;;;;2560563;53;20991;-84
2023/01/04 09:18:56;;;;;;;2.00;0.60;;;13.00;67.10;;;;;;2560627;53;20947;-86
2023/01/04 09:21:22;;;;;;;2.28;0.70;;;13.00;67.30;;;;;;2560528;53;21486;-83
2023/01/04 09:23:49;;;;;;;2.42;0.70;;;13.00;67.40;;;;;;2559772;53;20899;-83
2023/01/04 09:26:22;;;;;;;1.85;0.60;;;13.00;67.40;;;;;;2560092;53;21804;-85
2023/01/04 09:28:52;;;;;;;2.20;0.60;;;13.00;67.10;;;;;;2314036;54;20979;-84
2023/01/04 09:31:20;;;;;;;4.22;1.48;;;13.10;67.30;;;;;;2539061;53;20920;-83
2023/01/04 09:33:47;;;;;;;2.35;0.95;;;13.10;67.40;;;;;;2558962;53;21011;-84
2023/01/04 09:36:38;;;;;;;3.53;1.30;;;13.10;67.50;;;;;;2559651;53;20943;-83
2023/01/04 09:39:05;;;;;;;2.40;1.10;;;13.10;67.60;;;;;;2559929;53;20944;-83
2023/01/04 09:41:36;;;;;;;3.12;0.85;;;13.10;67.50;;;;;;2319539;54;20970;-83
2023/01/04 09:44:50;;;;;;;2.03;0.85;;;13.10;67.20;;;;;;2319881;54;20939;-84
2023/01/04 09:47:52;;;;;;;1.48;0.57;;;13.20;66.40;;;;;;2558599;53;20903;-84
2023/01/04 09:50:29;;;;;;;2.10;0.65;;;13.20;67.00;;;;;;2559081;53;20999;-84
2023/01/04 09:53:20;;;;;;;1.45;0.43;;;13.20;66.80;;;;;;2311514;54;21055;-85
2023/01/04 09:55:49;;;;;;;2.70;0.70;;;13.20;66.40;;;;;;2310019;54;20911;-84
2023/01/04 09:59:16;;;;;;;1.05;0.50;;;13.20;66.80;;;;;;2559660;53;21419;-84
2023/01/04 10:02:11;;;;;;;2.30;0.62;;;13.20;65.30;;;;;;2560029;53;20904;-83
2023/01/04 10:04:46;;;;;;;4.30;0.70;;;13.20;66.20;;;;;;2559775;53;20927;-84
2023/01/04 10:07:26;;;;;;;2.03;0.60;;;13.20;66.60;;;;;;2559796;53;21471;-83
2023/01/04 10:09:53;;;;;;;2.90;0.80;;;13.20;66.00;;;;;;2559367;53;21459;-84
2023/01/04 10:12:57;;;;;;;1.77;0.50;;;13.20;66.80;;;;;;2558961;53;21377;-83
2023/01/04 10:15:46;;;;;;;1.65;0.55;;;13.20;66.10;;;;;;2319480;54;21093;-84
2023/01/04 10:18:21;;;;;;;2.70;0.80;;;13.30;66.30;;;;;;2319635;54;20909;-86
2023/01/04 10:24:04;;;;;;;2.00;0.77;;;13.30;67.00;;;;;;2559806;53;20943;-83
2023/01/04 10:26:44;;;;;;;6.55;0.80;;;13.30;65.50;;;;;;2317734;54;20923;-83
2023/01/04 10:29:37;;;;;;;1.65;0.60;;;13.30;66.90;;;;;;2318459;54;21839;-83
2023/01/04 10:32:21;;;;;;;3.00;0.80;;;13.40;66.30;;;;;;2522492;54;20914;-83
2023/01/04 10:34:48;;;;;;;2.75;0.70;;;13.40;66.10;;;;;;2289585;55;22246;-83
2023/01/04 10:37:20;;;;;;;2.70;0.80;;;13.40;66.90;;;;;;2523283;54;20929;-83
2023/01/04 10:39:53;;;;;;;1.05;0.50;;;13.40;66.90;;;;;;2522164;54;20986;-83
2023/01/04 10:42:32;;;;;;;;;;;13.40;66.50;;;;;;2526587;54;21726;-84
2023/01/04 10:45:18;;;;;;;1.65;0.60;;;13.40;65.40;;;;;;2291305;55;20104;-84
2023/01/04 10:49:58;;;;;;;1.92;0.60;;;13.50;66.40;;;;;;2521865;54;20989;-84
2023/01/04 10:52:45;;;;;;;1.37;0.43;;;13.50;65.70;;;;;;2521307;54;21094;-84
2023/01/04 10:55:58;;;;;;;1.27;0.43;;;13.50;66.50;;;;;;2523203;54;21008;-83
2023/01/04 10:58:30;;;;;;;3.22;0.80;;;13.50;65.20;;;;;;2525365;54;20961;-84
2023/01/04 11:01:06;;;;;;;2.78;0.80;;;13.50;66.30;;;;;;2290696;55;20997;-84
2023/01/04 11:03:46;;;;;;;3.12;0.80;;;13.50;66.00;;;;;;2312741;54;21034;-85
2023/01/04 11:06:26;;;;;;;1.92;0.70;;;13.50;65.60;;;;;;2540820;53;21011;-85
2023/01/04 11:08:58;;;;;;;2.33;0.60;;;13.50;66.10;;;;;;2307985;54;20958;-84
2023/01/04 11:11:59;;;;;;;1.45;0.50;;;13.60;66.50;;;;;;2317111;54;22374;-82
2023/01/04 11:14:26;;;;;;;1.48;0.55;;;13.60;66.60;;;;;;2555944;53;21039;-84
2023/01/04 11:16:57;;;;;;;1.65;0.60;;;13.50;66.40;;;;;;2554625;53;20995;-84
2023/01/04 11:19:24;;;;;;;1.77;0.70;;;13.60;66.50;;;;;;2555960;53;21014;-83
2023/01/04 11:21:56;;;;;;;4.22;0.90;;;13.60;66.40;;;;;;2316777;54;21514;-84
2023/01/04 11:24:22;;;;;;;1.87;0.73;;;13.60;66.30;;;;;;2317099;54;21038;-85
2023/01/04 11:26:57;;;;;;;1.75;0.60;;;13.60;66.50;;;;;;2555427;53;21035;-85
2023/01/04 11:29:53;;;;;;;2.03;0.70;;;13.60;66.40;;;;;;2526955;53;21009;-84
2023/01/04 11:39:20;;;;;;;3.10;0.80;;;13.60;65.20;;;;;;2315154;54;21035;-85
2023/01/04 11:41:57;;;;;;;2.47;0.77;;;13.60;64.90;;;;;;2557150;53;20947;-85
2023/01/04 11:44:32;;;;;;;3.62;0.85;;;13.60;65.50;;;;;;2557125;53;21058;-84
2023/01/04 11:47:15;;;;;;;2.30;0.80;;;13.60;65.80;;;;;;2556797;53;21048;-85
2023/01/04 11:49:42;;;;;;;2.70;1.13;;;13.60;65.40;;;;;;2276457;54;1312150;-85
2023/01/04 11:52:28;;;;;;;2.05;0.82;;;13.50;65.20;;;;;;2316748;54;20975;-85
2023/01/04 11:54:54;;;;;;;2.97;0.80;;;13.50;64.70;;;;;;2557303;53;20999;-85
2023/01/04 11:57:20;;;;;;;2.95;0.90;;;13.60;65.90;;;;;;2556689;53;21806;-84
2023/01/04 12:00:14;;;;;;;2.22;0.77;;;13.60;65.60;;;;;;2556365;53;21039;-84
2023/01/04 12:02:41;;;;;;;1.77;0.65;;;13.60;64.60;;;;;;2317274;54;20975;-84
2023/01/04 12:05:25;;;;;;;4.40;0.93;;;13.60;65.70;;;;;;2317941;54;21030;-85
2023/01/04 12:07:55;;;;;;;3.22;0.93;;;13.60;65.70;;;;;;2317297;54;20920;-84
2023/01/04 12:10:25;;;;;;;2.33;0.70;;;13.60;65.40;;;;;;2557569;53;20943;-86
2023/01/04 12:12:55;;;;;;;2.10;0.80;;;13.60;65.40;;;;;;2317213;54;20933;-87
2023/01/04 12:17:06;;;;;;;2.60;0.70;;;13.60;65.60;;;;;;2557786;53;20982;-84
2023/01/04 12:19:33;;;;;;;1.75;0.60;;;13.60;64.30;;;;;;2317795;54;20963;-85
2023/01/04 12:22:15;;;;;;;2.47;0.60;;;13.70;66.10;;;;;;2557976;53;20927;-83
2023/01/04 12:24:42;;;;;;;2.25;0.75;;;13.70;65.90;;;;;;2558749;53;20900;-85
2023/01/04 12:27:12;;;;;;;3.00;1.40;;;13.70;66.00;;;;;;2559934;53;22592;-86
2023/01/04 12:29:55;;;;;;;2.78;1.00;;;13.70;66.10;;;;;;2558514;53;20999;-84
2023/01/04 12:32:43;;;;;;;1.52;0.70;;;13.70;66.00;;;;;;2556514;53;21110;-85
2023/01/04 12:36:03;;;;;;;2.62;0.90;;;13.70;65.40;;;;;;2291288;54;20985;-85
2023/01/04 12:40:19;;;;;;;2.85;1.10;;;13.70;65.10;;;;;;2525935;54;21113;-84
2023/01/04 12:43:45;;;;;;;2.90;1.15;;;13.70;65.60;;;;;;2526242;54;22179;-84
2023/01/04 12:50:19;;;;;;;3.10;1.40;;;13.70;65.80;;;;;;2292197;54;20966;-85
2023/01/04 12:53:09;;;;;;;2.42;1.12;;;13.70;65.20;;;;;;2525672;54;20950;-85
2023/01/04 12:55:52;;;;;;;2.47;1.15;;;13.80;66.80;;;;;;2293814;54;20934;-85
2023/01/04 12:58:40;;;;;;;3.78;1.67;;;13.80;66.90;;;;;;2293418;54;20997;-84
2023/01/04 13:01:26;;;;;;;3.28;1.65;;;13.80;66.30;;;;;;2527717;54;21001;-86
2023/01/04 13:04:44;;;;;;;3.35;1.45;;;13.80;67.30;;;;;;2526335;54;20988;-84
2023/01/04 13:07:19;;;;;;;4.45;1.40;;;13.80;66.50;;;;;;2291050;54;20990;-84
2023/01/04 13:09:54;;;;;;;3.80;1.70;;;13.80;67.10;;;;;;2525178;54;20933;-86
2023/01/04 13:12:56;;;;;;;2.22;1.00;;;13.80;66.90;;;;;;2291086;54;20977;-85
2023/01/04 13:17:13;;;;;;;2.70;1.10;;;13.90;66.60;;;;;;2552265;53;21531;-84
2023/01/04 13:19:42;;;;;;;2.85;1.10;;;13.90;66.50;;;;;;2523682;54;21013;-84
2023/01/04 13:22:14;;;;;;;2.65;0.98;;;13.90;67.50;;;;;;2312344;55;20974;-85
2023/01/04 13:24:42;;;;;;;1.95;0.77;;;13.90;67.40;;;;;;2559051;54;20944;-85
2023/01/04 13:27:14;;;;;;;2.72;0.93;;;13.90;67.40;;;;;;2557916;54;20945;-85
2023/01/04 13:29:41;;;;;;;2.58;1.10;;;14.00;67.40;;;;;;2299434;55;21014;-85
2023/01/04 13:32:29;;;;;;;2.28;1.08;;;14.00;67.70;;;;;;2558615;54;21455;-85
2023/01/04 13:35:12;;;;;;;2.47;1.20;;;14.00;66.70;;;;;;2320514;55;20973;-85
2023/01/04 13:37:49;;;;;;;3.12;1.30;;;14.00;66.90;;;;;;2321319;55;20990;-84
2023/01/04 13:40:26;;;;;;;2.60;1.05;;;14.00;67.20;;;;;;2320955;55;22033;-84
2023/01/04 13:44:00;;;;;;;4.55;1.10;;;14.00;67.00;;;;;;2560988;54;20977;-84
2023/01/04 13:46:26;;;;;;;1.98;0.93;;;14.10;66.20;;;;;;2321403;55;20953;-85
2023/01/04 13:48:56;;;;;;;3.05;1.00;;;14.10;67.70;;;;;;2560435;54;22201;-83
2023/01/04 13:51:30;;;;;;;1.90;0.80;;;14.10;67.70;;;;;;2560114;54;21013;-85
2023/01/04 13:54:03;;;;;;;2.53;0.70;;;14.10;67.50;;;;;;2560159;54;20934;-84
2023/01/04 13:56:32;;;;;;;2.45;0.70;;;14.10;67.70;;;;;;2559898;54;21025;-83
2023/01/04 13:58:58;;;;;;;2.42;0.62;;;14.10;67.60;;;;;;2319383;55;20942;-84
2023/01/04 14:01:42;;;;;;;1.42;0.50;;;14.10;67.70;;;;;;2558391;54;21005;-83
2023/01/04 14:06:09;;;;;;;3.08;0.80;;;14.10;66.70;;;;;;2318271;55;21095;-83
2023/01/04 14:08:59;;;;;;;2.42;0.80;;;14.20;65.90;;;;;;2318908;55;21560;-83
2023/01/04 14:11:57;;;;;;;1.17;0.52;;;14.20;67.30;;;;;;2320738;55;21643;-85
2023/01/04 14:14:45;;;;;;;2.03;0.60;;;14.20;66.80;;;;;;2561259;54;20965;-85
2023/01/04 14:17:56;;;;;;;1.83;0.70;;;14.10;67.10;;;;;;2320309;55;20954;-83
2023/01/04 14:20:32;;;;;;;2.28;0.73;;;14.20;65.60;;;;;;2320142;55;20950;-84
2023/01/04 14:22:58;;;;;;;1.75;0.60;;;14.20;66.80;;;;;;2560909;54;20910;-84
2023/01/04 14:25:58;;;;;;;1.58;0.50;;;14.20;67.40;;;;;;2561782;54;21535;-86
2023/01/04 14:28:27;;;;;;;3.28;0.60;;;14.20;66.30;;;;;;2533399;54;20993;-85
2023/01/04 14:31:18;;;;;;;2.15;0.75;;;14.20;68.20;;;;;;2320897;55;20945;-85
2023/01/04 14:33:48;;;;;;;1.55;0.60;;;14.20;66.40;;;;;;2319911;55;21005;-85
2023/01/04 14:36:21;;;;;;;1.95;0.70;;;14.20;67.50;;;;;;2559908;54;21482;-83
2023/01/04 14:39:10;;;;;;;3.37;0.70;;;14.20;67.30;;;;;;2560137;54;21312;-85
2023/01/04 14:41:38;;;;;;;2.17;0.80;;;14.20;67.20;;;;;;2561186;54;20958;-85
2023/01/04 14:44:13;;;;;;;1.92;0.65;;;14.20;67.50;;;;;;2320437;55;21644;-86